Time;durP1;ratioP1;P1;durP2;ratioP2;P2;SDS_P1;SDS_P2;PMS_P1;PMS_P2;Temp;Humidity;BMP_temperature;BMP_pressure;BME280_temperature;BME280_humidity;BME280_pressure;Samples;Min_cycle;Max_cycle;Signal;HPM_P1;HPM_P2
2021/05/21 00:02:04;;;;;;;3.97;1.52;;;;;;;12.74;100.00;100496.25;3600850;39;20058;-61
2021/05/21 00:04:30;;;;;;;3.45;1.70;;;;;;;12.76;100.00;100498.78;3601428;39;20315;-61
2021/05/21 00:06:56;;;;;;;2.72;1.65;;;;;;;12.70;100.00;100480.53;3599888;39;20128;-61
2021/05/21 00:09:22;;;;;;;3.22;1.58;;;;;;;12.78;100.00;100467.91;3600779;39;20121;-61
2021/05/21 00:11:48;;;;;;;4.80;1.75;;;;;;;12.79;100.00;100476.84;3601199;39;20051;-60
2021/05/21 00:14:14;;;;;;;4.88;2.03;;;;;;;12.81;100.00;100466.75;3600082;39;20062;-61
2021/05/21 00:16:41;;;;;;;6.72;1.60;;;;;;;12.85;100.00;100476.22;3601010;39;20422;-62
2021/05/21 00:19:07;;;;;;;4.18;1.45;;;;;;;12.92;100.00;100477.25;3600347;39;20567;-61
2021/05/21 00:21:33;;;;;;;4.07;1.48;;;;;;;12.86;100.00;100469.81;3600208;39;20065;-60
2021/05/21 00:23:59;;;;;;;4.63;1.70;;;;;;;12.87;100.00;100455.31;3601570;39;20095;-61
2021/05/21 00:26:25;;;;;;;2.58;1.67;;;;;;;12.90;100.00;100459.56;3600616;39;20406;-61
2021/05/21 00:28:51;;;;;;;2.90;1.55;;;;;;;12.88;100.00;100467.81;3601099;39;20052;-62
2021/05/21 00:31:17;;;;;;;4.43;1.70;;;;;;;12.91;100.00;100461.22;3600350;39;20079;-61
2021/05/21 00:33:43;;;;;;;2.85;1.40;;;;;;;12.88;100.00;100448.91;3600828;39;20125;-62
2021/05/21 00:36:10;;;;;;;4.90;1.65;;;;;;;12.88;100.00;100454.31;3600492;39;20048;-62
2021/05/21 00:38:36;;;;;;;2.00;1.35;;;;;;;12.96;100.00;100451.63;3600834;39;20096;-62
2021/05/21 00:41:02;;;;;;;5.45;1.40;;;;;;;12.86;100.00;100459.00;3600370;39;20084;-60
2021/05/21 00:43:28;;;;;;;6.25;1.60;;;;;;;12.77;100.00;100474.31;3599547;39;20052;-61
2021/05/21 00:45:54;;;;;;;5.47;1.65;;;;;;;12.70;100.00;100475.13;3600177;39;20410;-62
2021/05/21 00:48:21;;;;;;;3.60;1.55;;;;;;;12.58;100.00;100467.28;3601553;39;20047;-62
2021/05/21 00:50:49;;;;;;;2.80;1.60;;;;;;;12.32;100.00;100447.53;3601801;39;20383;-62
2021/05/21 00:53:17;;;;;;;3.35;1.80;;;;;;;12.22;100.00;100450.31;3600881;39;20129;-61
2021/05/21 00:55:43;;;;;;;4.40;1.88;;;;;;;12.23;100.00;100442.09;3601599;39;20138;-64
2021/05/21 00:58:09;;;;;;;3.03;1.50;;;;;;;12.17;100.00;100434.63;3601458;39;20048;-61
2021/05/21 01:00:35;;;;;;;6.18;1.88;;;;;;;12.20;100.00;100442.38;3601138;39;20417;-62
2021/05/21 01:03:01;;;;;;;4.85;1.85;;;;;;;12.16;100.00;100438.34;3601427;39;20060;-62
2021/05/21 01:05:27;;;;;;;5.05;1.63;;;;;;;12.13;100.00;100430.56;3600568;39;20050;-62
2021/05/21 01:07:54;;;;;;;6.25;1.65;;;;;;;12.10;100.00;100420.06;3602159;39;20056;-62
2021/05/21 01:10:20;;;;;;;4.28;1.80;;;;;;;12.15;100.00;100433.09;3600431;39;20056;-61
2021/05/21 01:12:46;;;;;;;4.07;1.65;;;;;;;12.16;100.00;100475.25;3600718;39;20290;-63
2021/05/21 01:15:13;;;;;;;2.30;1.60;;;;;;;12.06;100.00;100467.25;3601662;39;20055;-62
2021/05/21 01:20:09;;;;;;;10.65;2.58;;;;;;;11.90;100.00;100468.75;3637239;22;20043;-61
2021/05/21 01:22:36;;;;;;;15.35;2.80;;;;;;;11.77;100.00;100462.06;3605571;39;20067;-62
2021/05/21 01:25:04;;;;;;;9.05;2.53;;;;;;;11.72;100.00;100457.13;3605679;39;20318;-63
2021/05/21 01:27:30;;;;;;;12.48;3.20;;;;;;;11.67;100.00;100457.56;3605942;39;20070;-62
2021/05/21 01:29:56;;;;;;;14.55;2.97;;;;;;;11.63;100.00;100444.56;3606390;39;20039;-61
2021/05/21 01:32:22;;;;;;;19.10;3.38;;;;;;;11.58;100.00;100445.03;3605106;39;20124;-62
2021/05/21 01:34:48;;;;;;;13.82;3.22;;;;;;;11.55;100.00;100450.72;3605368;39;20116;-61
2021/05/21 01:37:16;;;;;;;15.35;3.15;;;;;;;11.54;100.00;100452.56;3605239;39;20076;-61
2021/05/21 01:39:42;;;;;;;17.45;3.63;;;;;;;11.53;100.00;100448.19;3605895;39;20108;-62
2021/05/21 01:42:10;;;;;;;15.40;3.25;;;;;;;11.50;100.00;100445.78;3604931;39;20140;-61
2021/05/21 01:44:37;;;;;;;16.60;3.38;;;;;;;11.48;100.00;100441.53;3606312;39;20063;-62
2021/05/21 01:47:03;;;;;;;17.10;3.60;;;;;;;11.44;100.00;100434.75;3605520;39;20325;-62
2021/05/21 01:49:29;;;;;;;21.90;3.83;;;;;;;11.42;100.00;100440.31;3606749;39;20417;-62
2021/05/21 01:51:57;;;;;;;19.30;4.00;;;;;;;11.42;100.00;100437.59;3605449;39;20059;-61
2021/05/21 01:54:23;;;;;;;17.25;3.60;;;;;;;11.41;100.00;100441.31;3606273;39;20199;-62
2021/05/21 01:56:52;;;;;;;15.93;3.35;;;;;;;11.38;100.00;100436.19;3607411;39;20394;-62
2021/05/21 01:59:19;;;;;;;18.67;3.80;;;;;;;11.32;100.00;100429.59;3605583;39;20062;-61
2021/05/21 02:01:45;;;;;;;19.13;3.60;;;;;;;11.34;100.00;100429.44;3605315;39;20373;-62
2021/05/21 02:04:11;;;;;;;19.92;4.03;;;;;;;11.35;100.00;100431.13;3605666;39;20043;-62
2021/05/21 02:06:38;;;;;;;19.10;4.10;;;;;;;11.38;100.00;100434.38;3607323;39;20329;-62
2021/05/21 02:09:07;;;;;;;15.68;3.88;;;;;;;11.36;100.00;100441.75;3606571;39;20044;-62
2021/05/21 02:11:33;;;;;;;15.27;3.05;;;;;;;11.32;100.00;100435.00;3604851;39;20044;-62
2021/05/21 02:13:59;;;;;;;16.05;3.35;;;;;;;11.30;100.00;100417.28;3604250;39;20039;-61
2021/05/21 02:16:26;;;;;;;14.27;3.33;;;;;;;11.28;100.00;100413.88;3606581;39;20083;-62
2021/05/21 02:18:52;;;;;;;14.77;2.95;;;;;;;11.26;100.00;100405.94;3606554;39;20296;-63
2021/05/21 02:21:18;;;;;;;18.48;3.22;;;;;;;11.21;100.00;100406.41;3603563;39;20052;-62
2021/05/21 02:23:44;;;;;;;13.93;3.28;;;;;;;11.15;100.00;100398.94;3606612;39;20402;-65
2021/05/21 02:26:14;;;;;;;14.98;3.42;;;;;;;11.10;100.00;100390.47;3639445;22;20078;-63
2021/05/21 02:28:40;;;;;;;14.90;2.95;;;;;;;11.12;100.00;100387.63;3603518;39;20059;-63
2021/05/21 02:31:07;;;;;;;18.05;3.92;;;;;;;11.09;100.00;100388.75;3605457;39;20051;-62
2021/05/21 02:33:33;;;;;;;17.52;3.20;;;;;;;11.07;100.00;100380.00;3605427;39;20071;-63
2021/05/21 02:35:59;;;;;;;14.27;2.97;;;;;;;10.88;100.00;100386.34;3607265;39;20390;-63
2021/05/21 02:38:25;;;;;;;18.00;3.22;;;;;;;10.79;100.00;100390.78;3606191;39;20063;-63
2021/05/21 02:40:51;;;;;;;17.35;3.58;;;;;;;10.75;100.00;100386.69;3606103;39;20035;-64
2021/05/21 02:43:17;;;;;;;14.18;3.38;;;;;;;10.77;100.00;100379.28;3604715;39;20047;-63
2021/05/21 02:45:43;;;;;;;18.23;3.38;;;;;;;10.66;100.00;100376.81;3607165;39;20059;-63
2021/05/21 02:48:09;;;;;;;13.57;3.17;;;;;;;10.45;100.00;100358.19;3604525;39;20058;-65
2021/05/21 02:50:36;;;;;;;20.60;3.70;;;;;;;10.31;100.00;100356.81;3606561;39;20038;-64
2021/05/21 02:53:01;;;;;;;26.92;4.38;;;;;;;10.24;100.00;100361.06;3604106;39;20055;-66
2021/05/21 02:55:27;;;;;;;17.67;3.70;;;;;;;10.18;100.00;100366.03;3605738;39;20395;-63
2021/05/21 02:57:53;;;;;;;17.98;3.67;;;;;;;10.12;100.00;100358.53;3606475;39;20044;-63
2021/05/21 03:00:20;;;;;;;15.00;3.42;;;;;;;10.14;100.00;100364.66;3606856;39;20043;-64
2021/05/21 03:02:46;;;;;;;15.32;3.42;;;;;;;10.17;100.00;100350.03;3604001;39;20051;-63
2021/05/21 03:05:17;;;;;;;17.95;3.40;;;;;;;10.10;100.00;100349.78;3605331;39;20306;-63
2021/05/21 03:07:43;;;;;;;20.90;3.72;;;;;;;10.12;100.00;100336.19;3606570;39;20048;-63
2021/05/21 03:10:10;;;;;;;17.33;3.50;;;;;;;10.12;100.00;100320.91;3606404;39;20095;-63
2021/05/21 03:12:36;;;;;;;25.15;4.38;;;;;;;10.10;100.00;100322.91;3605485;39;20393;-65
2021/05/21 03:15:03;;;;;;;23.27;4.03;;;;;;;10.05;100.00;100330.53;3604255;39;20059;-64
2021/05/21 03:17:32;;;;;;;22.17;4.05;;;;;;;10.02;100.00;100325.47;3605693;39;20039;-66
2021/05/21 03:19:58;;;;;;;20.45;3.67;;;;;;;10.00;100.00;100328.28;3606593;39;20082;-64
2021/05/21 03:22:25;;;;;;;25.20;4.07;;;;;;;9.91;100.00;100329.19;3604517;39;20052;-63
2021/05/21 03:24:51;;;;;;;18.60;4.22;;;;;;;9.88;100.00;100334.84;3605790;39;20055;-64
2021/05/21 03:27:17;;;;;;;24.42;3.58;;;;;;;9.85;100.00;100323.50;3605267;39;20311;-65
2021/05/21 03:29:43;;;;;;;23.00;4.43;;;;;;;9.76;100.00;100325.22;3606891;39;20389;-65
2021/05/21 03:32:11;;;;;;;20.27;4.43;;;;;;;9.71;100.00;100311.38;3604381;39;20051;-65
2021/05/21 03:34:37;;;;;;;22.65;3.92;;;;;;;9.64;100.00;100321.84;3604838;39;20125;-62
2021/05/21 03:37:03;;;;;;;19.95;3.28;;;;;;;9.61;100.00;100306.88;3605866;39;20047;-64
2021/05/21 03:39:30;;;;;;;21.15;4.68;;;;;;;9.51;100.00;100306.06;3606866;39;20387;-63
2021/05/21 03:41:55;;;;;;;21.33;4.22;;;;;;;9.49;100.00;100312.56;3605133;39;20059;-65
2021/05/21 03:44:21;;;;;;;22.55;5.78;;;;;;;9.43;100.00;100301.38;3604930;39;20070;-64
2021/05/21 03:46:47;;;;;;;25.92;4.38;;;;;;;9.41;100.00;100300.66;3606427;39;20131;-64
2021/05/21 03:49:16;;;;;;;17.90;4.82;;;;;;;9.38;100.00;100300.09;3605902;39;20064;-63
2021/05/21 03:51:42;;;;;;;22.67;4.20;;;;;;;9.35;100.00;100298.56;3605030;39;20047;-63
2021/05/21 03:54:08;;;;;;;18.33;3.25;;;;;;;9.38;100.00;100292.03;3603814;39;20106;-64
2021/05/21 03:56:35;;;;;;;21.73;4.68;;;;;;;9.33;100.00;100295.16;3602802;39;20048;-66
2021/05/21 03:59:01;;;;;;;22.70;4.30;;;;;;;9.33;100.00;100288.94;3605943;39;20083;-63
2021/05/21 04:01:27;;;;;;;21.50;4.72;;;;;;;9.35;100.00;100289.63;3605222;39;20279;-65
2021/05/21 04:03:55;;;;;;;25.52;4.45;;;;;;;9.34;100.00;100288.81;3603808;39;20092;-63
2021/05/21 04:06:21;;;;;;;21.63;4.35;;;;;;;9.32;100.00;100280.06;3605057;39;20081;-64
2021/05/21 04:08:47;;;;;;;25.73;4.40;;;;;;;9.37;100.00;100280.44;3606515;39;20036;-64
2021/05/21 04:11:13;;;;;;;18.98;4.03;;;;;;;9.40;100.00;100277.47;3606054;39;20081;-65
2021/05/21 04:13:41;;;;;;;23.48;4.60;;;;;;;9.38;100.00;100273.22;3605040;39;20097;-63
2021/05/21 04:16:06;;;;;;;20.75;4.40;;;;;;;9.41;100.00;100265.75;3605245;39;20108;-63
2021/05/21 04:18:32;;;;;;;24.75;5.20;;;;;;;9.43;100.00;100261.06;3604981;39;20053;-63
2021/05/21 04:20:59;;;;;;;27.13;4.25;;;;;;;9.45;100.00;100263.63;3606035;39;20040;-64
2021/05/21 04:23:24;;;;;;;20.58;4.28;;;;;;;9.52;100.00;100258.53;3603963;39;20083;-64
2021/05/21 04:25:51;;;;;;;24.13;4.85;;;;;;;9.47;100.00;100256.28;3604838;39;20294;-61
2021/05/21 04:28:17;;;;;;;27.50;4.80;;;;;;;9.53;100.00;100250.31;3605912;39;20043;-63
2021/05/21 04:30:43;;;;;;;25.17;4.50;;;;;;;9.55;100.00;100248.34;3605803;39;20036;-62
2021/05/21 04:33:09;;;;;;;31.27;4.43;;;;;;;9.61;100.00;100253.16;3603560;39;20147;-63
2021/05/21 04:35:35;;;;;;;26.02;5.22;;;;;;;9.67;100.00;100254.38;3606392;39;20410;-64
2021/05/21 04:38:01;;;;;;;28.80;4.75;;;;;;;9.71;100.00;100252.28;3605869;39;20417;-63
2021/05/21 04:40:27;;;;;;;23.98;5.03;;;;;;;9.74;100.00;100242.06;3605834;39;20059;-63
2021/05/21 04:42:53;;;;;;;20.38;3.60;;;;;;;9.77;100.00;100247.13;3604817;39;20047;-63
2021/05/21 04:45:19;;;;;;;24.65;4.55;;;;;;;9.86;100.00;100247.28;3605915;39;20356;-63
2021/05/21 04:47:46;;;;;;;22.55;3.72;;;;;;;10.52;100.00;100240.91;3606713;39;20127;-65
2021/05/21 04:50:12;;;;;;;21.45;4.03;;;;;;;10.83;100.00;100249.47;3605095;39;20044;-63
2021/05/21 04:52:38;;;;;;;21.08;3.88;;;;;;;11.48;100.00;100237.56;3604710;39;20046;-63
2021/05/21 04:55:05;;;;;;;19.33;4.05;;;;;;;11.91;100.00;100233.13;3604967;39;20083;-66
2021/05/21 04:57:31;;;;;;;22.13;4.13;;;;;;;10.81;100.00;100234.50;3606367;39;20441;-64
2021/05/21 04:59:57;;;;;;;21.40;4.07;;;;;;;10.57;100.00;100235.06;3605653;39;20063;-64
2021/05/21 05:02:23;;;;;;;21.00;4.57;;;;;;;10.27;100.00;100243.25;3604260;39;20172;-65
2021/05/21 05:04:50;;;;;;;20.08;4.18;;;;;;;10.17;100.00;100232.56;3605120;39;20047;-63
2021/05/21 05:07:16;;;;;;;23.67;3.95;;;;;;;10.16;100.00;100222.81;3605786;39;20391;-64
2021/05/21 05:09:42;;;;;;;17.65;3.80;;;;;;;10.26;100.00;100224.59;3606923;39;20155;-64
2021/05/21 05:12:08;;;;;;;22.42;3.63;;;;;;;10.22;100.00;100213.31;3605437;39;20063;-64
2021/05/21 05:14:34;;;;;;;25.05;4.47;;;;;;;10.29;100.00;100219.78;3604534;39;20052;-63
2021/05/21 05:20:05;;;;;;;25.42;4.35;;;;;;;10.47;100.00;100205.56;3630308;22;20059;-64
2021/05/21 05:22:31;;;;;;;18.48;3.35;;;;;;;10.47;100.00;100201.00;3604494;39;20059;-63
2021/05/21 05:24:57;;;;;;;21.92;3.75;;;;;;;10.54;100.00;100205.78;3605132;39;20043;-63
2021/05/21 05:27:23;;;;;;;15.35;4.00;;;;;;;10.60;100.00;100184.50;3606253;39;20047;-64
2021/05/21 05:29:50;;;;;;;19.10;4.20;;;;;;;10.60;100.00;100172.88;3606632;39;20047;-62
2021/05/21 05:32:16;;;;;;;21.08;3.40;;;;;;;10.74;100.00;100180.41;3604994;39;20039;-64
2021/05/21 05:34:42;;;;;;;20.33;4.45;;;;;;;10.74;100.00;100180.41;3605356;39;20062;-62
2021/05/21 05:37:08;;;;;;;23.83;4.25;;;;;;;10.82;100.00;100172.41;3605561;39;20048;-63
2021/05/21 05:39:34;;;;;;;15.38;4.15;;;;;;;10.90;100.00;100168.13;3606109;39;20047;-63
2021/05/21 05:42:00;;;;;;;20.27;3.88;;;;;;;10.99;100.00;100172.56;3605747;39;20040;-62
2021/05/21 05:44:27;;;;;;;17.48;3.63;;;;;;;11.02;100.00;100172.25;3605672;39;20055;-64
2021/05/21 05:46:53;;;;;;;20.08;3.67;;;;;;;11.00;100.00;100164.31;3605068;39;20063;-63
2021/05/21 05:49:19;;;;;;;14.70;3.47;;;;;;;11.15;100.00;100161.06;3604588;39;20055;-63
2021/05/21 05:51:45;;;;;;;16.88;3.72;;;;;;;11.17;100.00;100168.00;3605877;39;20295;-64
2021/05/21 05:54:12;;;;;;;17.25;3.28;;;;;;;11.21;100.00;100161.28;3603295;39;20144;-63
2021/05/21 05:56:38;;;;;;;16.60;3.40;;;;;;;11.32;100.00;100168.28;3605538;39;20048;-63
2021/05/21 05:59:04;;;;;;;17.05;3.88;;;;;;;11.39;100.00;100158.56;3605290;39;20123;-63
2021/05/21 06:01:30;;;;;;;15.90;3.65;;;;;;;11.51;100.00;100151.03;3604958;39;20733;-66
2021/05/21 06:03:56;;;;;;;15.88;3.30;;;;;;;11.48;100.00;100145.09;3605461;39;20079;-63
2021/05/21 06:06:22;;;;;;;19.15;3.78;;;;;;;11.42;100.00;100135.81;3605923;39;20067;-64
2021/05/21 06:08:48;;;;;;;15.32;3.53;;;;;;;11.56;100.00;100151.38;3604702;39;20032;-64
2021/05/21 06:11:15;;;;;;;19.80;4.13;;;;;;;11.57;100.00;100136.91;3605640;39;20036;-63
2021/05/21 06:13:42;;;;;;;16.60;3.28;;;;;;;11.55;100.00;100143.47;3604758;39;20356;-65
2021/05/21 06:16:08;;;;;;;17.83;3.53;;;;;;;11.54;100.00;100133.69;3604064;39;20102;-61
2021/05/21 06:18:34;;;;;;;19.45;3.75;;;;;;;11.81;100.00;100135.34;3606268;39;20321;-63
2021/05/21 06:21:00;;;;;;;16.83;3.70;;;;;;;11.98;100.00;100124.66;3604702;39;20410;-64
2021/05/21 06:23:26;;;;;;;16.35;3.47;;;;;;;11.92;100.00;100131.50;3602902;39;20063;-64
2021/05/21 06:26:10;;;;;;;20.63;3.75;;;;;;;12.07;100.00;100137.16;3604924;39;20370;-63
2021/05/21 06:28:37;;;;;;;13.40;3.55;;;;;;;12.13;100.00;100131.13;3605778;39;20305;-62
2021/05/21 06:31:03;;;;;;;19.27;3.45;;;;;;;12.29;100.00;100132.16;3606322;39;20054;-64
2021/05/21 06:33:29;;;;;;;14.85;3.25;;;;;;;12.46;100.00;100117.69;3606210;39;20040;-64
2021/05/21 06:35:55;;;;;;;14.75;3.45;;;;;;;12.76;100.00;100118.91;3606278;39;20044;-65
2021/05/21 06:38:21;;;;;;;13.23;3.47;;;;;;;12.58;100.00;100121.72;3606830;39;20044;-63
2021/05/21 06:40:47;;;;;;;13.32;3.25;;;;;;;12.49;100.00;100116.50;3607063;39;20047;-63
2021/05/21 06:43:13;;;;;;;18.50;3.45;;;;;;;12.38;100.00;100117.66;3604164;39;20338;-63
2021/05/21 06:45:41;;;;;;;20.75;3.50;;;;;;;12.46;100.00;100138.44;3605959;39;20051;-62
2021/05/21 06:48:08;;;;;;;16.00;3.35;;;;;;;12.29;100.00;100121.34;3605156;39;20047;-62
2021/05/21 06:50:34;;;;;;;11.48;3.22;;;;;;;12.32;100.00;100113.75;3599709;39;20035;-66
2021/05/21 06:53:00;;;;;;;16.25;3.28;;;;;;;12.50;100.00;100119.03;3603316;39;20048;-63
2021/05/21 06:55:26;;;;;;;15.45;3.35;;;;;;;12.88;100.00;100121.25;3606750;39;20057;-64
2021/05/21 06:57:53;;;;;;;13.45;2.75;;;;;;;12.60;100.00;100132.38;3606481;39;20051;-64
2021/05/21 07:00:19;;;;;;;16.20;3.70;;;;;;;12.69;100.00;100128.69;3605282;39;20048;-63
2021/05/21 07:02:46;;;;;;;15.43;3.05;;;;;;;12.64;100.00;100125.63;3604701;39;20053;-64
2021/05/21 07:05:13;;;;;;;18.65;3.55;;;;;;;12.49;100.00;100125.44;3604408;39;20054;-64
2021/05/21 07:07:40;;;;;;;16.30;3.65;;;;;;;12.48;100.00;100125.63;3604203;39;20039;-64
2021/05/21 07:10:08;;;;;;;13.75;3.25;;;;;;;12.51;100.00;100119.88;3602970;39;20260;-63
2021/05/21 07:12:34;;;;;;;15.65;3.00;;;;;;;12.52;100.00;100103.50;3604614;39;20055;-63
2021/05/21 07:15:00;;;;;;;16.40;3.75;;;;;;;12.61;100.00;100110.59;3603545;39;20044;-62
2021/05/21 07:17:26;;;;;;;13.68;3.00;;;;;;;12.70;100.00;100110.63;3602685;39;20057;-64
2021/05/21 07:19:53;;;;;;;16.90;3.70;;;;;;;12.79;100.00;100112.28;3603252;39;20036;-64
2021/05/21 07:22:19;;;;;;;14.63;3.25;;;;;;;12.89;100.00;100098.63;3602080;39;20656;-64
2021/05/21 07:24:45;;;;;;;15.55;3.25;;;;;;;12.94;100.00;100121.41;3603046;39;20043;-64
2021/05/21 07:27:11;;;;;;;18.13;3.65;;;;;;;12.95;100.00;100100.66;3602960;39;20055;-63
2021/05/21 07:29:37;;;;;;;17.50;3.88;;;;;;;12.85;100.00;100114.31;3603360;39;20308;-63
2021/05/21 07:32:04;;;;;;;13.63;2.83;;;;;;;12.80;100.00;100087.81;3604380;39;20052;-62
2021/05/21 07:34:29;;;;;;;17.92;3.25;;;;;;;12.71;100.00;100120.41;3604531;39;20040;-63
2021/05/21 07:36:56;;;;;;;18.45;4.32;;;;;;;12.82;100.00;100101.16;3605809;39;20047;-63
2021/05/21 07:39:22;;;;;;;18.05;3.55;;;;;;;12.93;100.00;100089.19;3602551;39;20051;-63
2021/05/21 07:41:48;;;;;;;15.43;3.30;;;;;;;12.76;100.00;100115.34;3605932;39;20448;-65
2021/05/21 07:44:15;;;;;;;16.15;3.08;;;;;;;12.89;100.00;100102.16;3604009;39;20330;-64
2021/05/21 07:46:42;;;;;;;12.93;3.05;;;;;;;12.95;100.00;100096.06;3604069;39;20076;-63
2021/05/21 07:49:08;;;;;;;17.77;3.03;;;;;;;13.22;100.00;100107.53;3604167;39;20052;-63
2021/05/21 07:51:34;;;;;;;14.63;2.80;;;;;;;13.19;100.00;100105.19;3603323;39;20128;-63
2021/05/21 07:54:01;;;;;;;15.05;2.83;;;;;;;12.86;100.00;100097.09;3603404;39;20035;-64
2021/05/21 07:56:27;;;;;;;15.13;2.90;;;;;;;12.97;100.00;100104.03;3605268;39;20060;-63
2021/05/21 07:58:53;;;;;;;11.25;2.88;;;;;;;12.87;100.00;100098.81;3679612;22;20051;-63
2021/05/21 08:01:19;;;;;;;16.92;2.85;;;;;;;12.85;100.00;100103.50;3604733;39;20063;-63
2021/05/21 08:03:46;;;;;;;15.55;3.13;;;;;;;13.04;100.00;100104.19;3604840;39;20039;-63
2021/05/21 08:06:12;;;;;;;19.63;3.10;;;;;;;13.26;100.00;100087.25;3603577;39;20028;-63
2021/05/21 08:08:38;;;;;;;14.73;3.95;;;;;;;13.20;100.00;100109.56;3605877;39;20088;-64
2021/05/21 08:11:05;;;;;;;19.92;3.00;;;;;;;13.03;100.00;100097.09;3605035;39;20054;-64
2021/05/21 08:13:31;;;;;;;15.43;2.80;;;;;;;13.18;100.00;100092.69;3604125;39;20128;-63
2021/05/21 08:15:57;;;;;;;13.13;2.55;;;;;;;13.46;100.00;100095.00;3603632;39;20036;-65
2021/05/21 08:18:23;;;;;;;14.70;3.40;;;;;;;13.52;100.00;100085.38;3603845;39;20032;-64
2021/05/21 08:20:50;;;;;;;13.48;3.35;;;;;;;13.35;100.00;100074.59;3597729;39;20052;-64
2021/05/21 08:23:17;;;;;;;11.00;2.83;;;;;;;13.64;100.00;100079.38;3600816;39;20050;-63
2021/05/21 08:25:44;;;;;;;14.23;3.55;;;;;;;13.49;100.00;100094.66;3603945;39;20079;-63
2021/05/21 08:28:11;;;;;;;11.75;2.97;;;;;;;13.51;100.00;100083.69;3603798;39;20062;-61
2021/05/21 08:30:38;;;;;;;11.32;2.95;;;;;;;13.69;100.00;100080.72;3601612;39;20028;-64
2021/05/21 08:33:05;;;;;;;14.35;3.20;;;;;;;13.76;100.00;100070.88;3601729;39;20781;-63
2021/05/21 08:35:31;;;;;;;14.35;2.60;;;;;;;13.41;100.00;100079.31;3604843;39;20165;-63
2021/05/21 08:37:57;;;;;;;14.23;2.92;;;;;;;13.38;100.00;100078.81;3604779;39;20104;-62
2021/05/21 08:40:26;;;;;;;10.80;2.38;;;;;;;13.36;100.00;100078.16;3604534;39;20051;-63
2021/05/21 08:42:58;;;;;;;16.92;3.17;;;;;;;13.28;100.00;100085.22;3605961;39;20083;-62
2021/05/21 08:45:25;;;;;;;12.48;3.40;;;;;;;12.99;100.00;100101.16;3606125;39;20107;-65
2021/05/21 08:47:51;;;;;;;15.57;2.92;;;;;;;12.82;100.00;100100.31;3606418;39;20064;-62
2021/05/21 08:50:18;;;;;;;19.05;3.17;;;;;;;12.93;100.00;100098.13;3602633;39;20043;-63
2021/05/21 08:52:45;;;;;;;9.98;2.38;;;;;;;13.26;100.00;100098.06;3603500;39;20059;-63
2021/05/21 08:55:11;;;;;;;11.35;2.92;;;;;;;13.44;100.00;100114.09;3603614;39;20087;-63
2021/05/21 08:57:37;;;;;;;16.42;3.30;;;;;;;13.46;100.00;100065.28;3602147;39;20046;-62
2021/05/21 09:00:05;;;;;;;14.00;2.90;;;;;;;13.56;100.00;100075.88;3603786;39;20083;-62
2021/05/21 09:02:33;;;;;;;13.40;2.92;;;;;;;13.78;100.00;100076.94;3606304;39;20112;-63
2021/05/21 09:05:00;;;;;;;10.68;2.33;;;;;;;13.56;100.00;100071.31;3605986;39;20140;-64
2021/05/21 09:07:28;;;;;;;15.82;2.80;;;;;;;13.46;100.00;100070.69;3606287;39;20060;-65
2021/05/21 09:09:56;;;;;;;11.88;3.20;;;;;;;13.25;100.00;100085.56;3606671;39;20043;-63
2021/05/21 09:12:23;;;;;;;15.93;2.78;;;;;;;13.13;100.00;100084.22;3605883;39;20099;-63
2021/05/21 09:15:06;;;;;;;12.80;2.90;;;;;;;13.01;100.00;100088.31;3603845;39;20084;-65
2021/05/21 09:17:33;;;;;;;10.27;2.75;;;;;;;12.91;100.00;100092.06;3601909;39;20039;-64
2021/05/21 09:19:59;;;;;;;9.57;2.60;;;;;;;13.02;100.00;100090.84;3602665;39;20083;-64
2021/05/21 09:22:25;;;;;;;8.43;2.33;;;;;;;12.95;100.00;100095.25;3602748;39;20039;-63
2021/05/21 09:24:52;;;;;;;17.38;3.00;;;;;;;12.91;100.00;100108.25;3602549;39;20051;-64
2021/05/21 09:27:19;;;;;;;12.60;3.00;;;;;;;12.74;100.00;100098.47;3602161;39;20044;-63
2021/05/21 09:29:47;;;;;;;18.75;3.13;;;;;;;12.64;100.00;100098.63;3600158;39;20048;-63
2021/05/21 09:32:25;;;;;;;10.65;2.70;;;;;;;12.72;100.00;100100.47;3602888;39;20055;-63
2021/05/21 09:35:10;;;;;;;10.10;2.90;;;;;;;12.79;100.00;100106.88;3601943;39;20071;-64
2021/05/21 09:37:41;;;;;;;12.98;3.03;;;;;;;12.77;100.00;100092.72;3603051;39;20031;-64
2021/05/21 09:40:14;;;;;;;12.48;2.88;;;;;;;12.79;100.00;100096.09;3603391;39;20055;-63
2021/05/21 09:42:52;;;;;;;13.68;2.90;;;;;;;12.74;100.00;100095.78;3602881;39;20082;-63
2021/05/21 09:45:29;;;;;;;7.43;2.58;;;;;;;12.70;100.00;100107.91;3602738;39;20129;-64
2021/05/21 09:47:58;;;;;;;12.63;3.20;;;;;;;12.61;100.00;100110.59;3603621;39;20120;-63
2021/05/21 09:50:33;;;;;;;11.33;2.80;;;;;;;12.85;100.00;100113.47;3605081;39;20050;-63
2021/05/21 09:53:01;;;;;;;12.90;2.90;;;;;;;13.08;100.00;100119.03;3603804;39;20317;-63
2021/05/21 09:55:32;;;;;;;16.15;2.65;;;;;;;13.23;100.00;100105.69;3606133;39;20354;-64
2021/05/21 09:57:58;;;;;;;9.02;2.60;;;;;;;13.21;100.00;100100.44;3606076;39;20040;-64
2021/05/21 10:00:24;;;;;;;12.32;2.90;;;;;;;13.26;100.00;100095.34;3604425;39;20043;-64
2021/05/21 10:02:51;;;;;;;13.88;2.97;;;;;;;12.93;100.00;100087.31;3603029;39;20347;-65
2021/05/21 10:05:17;;;;;;;10.27;2.67;;;;;;;12.84;100.00;100096.44;3606268;39;20059;-64
2021/05/21 10:07:46;;;;;;;13.82;2.28;;;;;;;12.68;100.00;100107.25;3604945;39;20050;-64
2021/05/21 10:10:14;;;;;;;12.88;3.15;;;;;;;12.73;100.00;100097.59;3604872;39;20095;-63
2021/05/21 10:12:41;;;;;;;7.85;2.55;;;;;;;12.99;100.00;100103.88;3603580;39;20047;-65
2021/05/21 10:15:08;;;;;;;9.65;3.08;;;;;;;13.15;100.00;100103.84;3602525;39;20039;-64
2021/05/21 10:17:34;;;;;;;9.63;2.72;;;;;;;13.24;100.00;100116.31;3603998;39;20039;-63
2021/05/21 10:20:01;;;;;;;8.02;2.10;;;;;;;13.40;100.00;100093.00;3603399;39;20072;-63
2021/05/21 10:22:29;;;;;;;9.75;2.60;;;;;;;13.40;100.00;100087.59;3603405;39;20047;-63
2021/05/21 10:25:01;;;;;;;8.85;2.83;;;;;;;13.46;100.00;100093.13;3604228;39;20493;-63
2021/05/21 10:27:30;;;;;;;14.57;2.72;;;;;;;13.61;100.00;100100.53;3602875;39;20045;-63
2021/05/21 10:30:00;;;;;;;11.18;2.50;;;;;;;13.38;100.00;100097.72;3605846;39;20039;-63
2021/05/21 10:32:29;;;;;;;9.60;2.30;;;;;;;13.61;100.00;100085.13;3603897;39;20055;-63
2021/05/21 10:34:55;;;;;;;;;;;;;;;13.82;100.00;100091.81;3604558;39;20059;-64
2021/05/21 10:37:28;;;;;;;8.90;2.75;;;;;;;14.55;100.00;100087.81;3603800;39;19967;-63
2021/05/21 10:40:04;;;;;;;11.60;2.97;;;;;;;14.15;100.00;100086.25;3604728;39;20039;-63
2021/05/21 10:42:37;;;;;;;13.07;3.38;;;;;;;14.33;100.00;100103.03;3605455;39;20044;-64
2021/05/21 10:45:14;;;;;;;13.48;3.55;;;;;;;13.77;100.00;100075.28;3603296;39;20055;-64
2021/05/21 10:47:41;;;;;;;11.98;2.97;;;;;;;13.90;100.00;100089.09;3605301;39;20120;-62
2021/05/21 10:50:13;;;;;;;13.25;3.28;;;;;;;13.76;100.00;100079.00;3604478;39;20060;-63
2021/05/21 10:55:06;;;;;;;13.43;3.03;;;;;;;14.24;100.00;100068.94;3648146;22;21294;-62
2021/05/21 10:57:33;;;;;;;15.55;2.95;;;;;;;15.54;100.00;100057.03;3597923;39;20266;-62
2021/05/21 11:00:00;;;;;;;15.23;2.88;;;;;;;15.22;100.00;100067.25;3597280;39;20097;-62
2021/05/21 11:02:27;;;;;;;11.05;2.33;;;;;;;15.05;100.00;100061.16;3596988;39;20578;-63
2021/05/21 11:04:54;;;;;;;9.52;2.72;;;;;;;14.81;100.00;100064.97;3598864;39;20044;-64
2021/05/21 11:07:35;;;;;;;10.15;2.50;;;;;;;14.36;100.00;100088.31;3601750;39;20581;-63
2021/05/21 11:10:01;;;;;;;11.35;2.17;;;;;;;14.43;100.00;100069.47;3602313;39;20046;-62
2021/05/21 11:12:45;;;;;;;8.80;2.67;;;;;;;14.51;100.00;100077.53;3600838;39;20044;-64
2021/05/21 11:15:40;;;;;;;11.93;2.83;;;;;;;14.48;100.00;100076.03;3600972;39;20395;-62
2021/05/21 11:18:11;;;;;;;13.23;2.92;;;;;;;14.61;100.00;100080.88;3594679;39;20050;-64
2021/05/21 11:20:56;;;;;;;9.25;2.38;;;;;;;14.93;100.00;100073.50;3597760;39;20054;-64